createdAt,value
2022-08-17T00:00:34.379Z,15.30
2022-08-17T00:03:14.431Z,15.45
2022-08-17T00:05:59.925Z,15.40
2022-08-17T00:08:36.109Z,16.63
2022-08-17T00:11:09.733Z,16.00
2022-08-17T00:13:39.918Z,15.23
2022-08-17T00:16:13.197Z,16.90
2022-08-17T00:18:58.369Z,17.17
2022-08-17T00:22:01.382Z,17.25
2022-08-17T00:24:17.664Z,17.55
2022-08-17T00:26:46.378Z,18.13
2022-08-17T00:29:19.661Z,18.35
2022-08-17T00:31:49.184Z,17.90
2022-08-17T00:34:17.727Z,17.50
2022-08-17T00:36:45.806Z,18.63
2022-08-17T00:39:17.496Z,19.90
2022-08-17T00:41:47.184Z,19.40
2022-08-17T00:44:15.747Z,21.13
2022-08-17T00:46:44.073Z,19.17
2022-08-17T00:49:13.190Z,19.70
2022-08-17T00:51:42.773Z,19.17
2022-08-17T00:54:21.763Z,19.42
2022-08-17T00:56:55.709Z,20.20
2022-08-17T00:59:26.231Z,20.35
2022-08-17T01:01:54.200Z,19.48
2022-08-17T01:04:22.180Z,19.05
2022-08-17T01:06:51.756Z,19.17
2022-08-17T01:09:20.931Z,17.38
2022-08-17T01:11:52.478Z,19.30
2022-08-17T01:14:22.720Z,20.70
2022-08-17T01:16:51.555Z,19.27
2022-08-17T01:19:26.512Z,19.65
2022-08-17T01:22:02.172Z,19.48
2022-08-17T01:24:30.313Z,18.70
2022-08-17T01:27:02.051Z,19.52
2022-08-17T01:29:33.775Z,19.98
2022-08-17T01:32:04.595Z,19.77
2022-08-17T01:34:42.909Z,21.02
2022-08-17T01:37:19.054Z,20.80
2022-08-17T01:40:23.905Z,20.48
2022-08-17T01:42:57.426Z,20.17
2022-08-17T01:45:29.012Z,19.48
2022-08-17T01:47:57.443Z,19.70
2022-08-17T01:50:28.564Z,20.30
2022-08-17T01:53:08.073Z,23.20
2022-08-17T01:55:49.818Z,21.40
2022-08-17T01:58:18.938Z,20.70
2022-08-17T02:01:00.022Z,20.48
2022-08-17T02:03:29.594Z,22.25
2022-08-17T02:05:57.771Z,22.13
2022-08-17T02:08:38.865Z,21.40
2022-08-17T02:11:12.023Z,21.83
2022-08-17T02:13:39.990Z,21.20
2022-08-17T02:16:09.143Z,21.33
2022-08-17T02:18:37.164Z,22.20
2022-08-17T02:21:05.160Z,21.23
2022-08-17T02:23:35.707Z,22.23
2022-08-17T02:26:04.059Z,22.50
2022-08-17T02:28:32.945Z,23.00
2022-08-17T02:31:08.006Z,21.80
2022-08-17T02:33:41.775Z,22.33
2022-08-17T02:36:13.228Z,22.15
2022-08-17T02:38:41.340Z,24.10
2022-08-17T02:41:09.651Z,22.48
2022-08-17T02:43:38.152Z,23.10
2022-08-17T02:46:06.108Z,22.33
2022-08-17T02:48:34.897Z,23.88
2022-08-17T02:51:07.064Z,22.60
2022-08-17T02:53:35.818Z,22.40
2022-08-17T02:56:04.873Z,22.08
2022-08-17T02:58:35.243Z,20.58
2022-08-17T03:01:05.594Z,20.77
2022-08-17T03:03:33.398Z,20.75
2022-08-17T03:06:01.813Z,23.70
2022-08-17T03:08:30.425Z,53.50
2022-08-17T03:10:59.086Z,77.63
2022-08-17T03:13:28.636Z,38.80
2022-08-17T03:15:56.705Z,41.53
2022-08-17T03:18:26.377Z,35.70
2022-08-17T03:20:55.796Z,33.30
2022-08-17T03:23:25.248Z,29.15
2022-08-17T03:25:54.431Z,22.88
2022-08-17T03:28:22.870Z,22.27
2022-08-17T03:30:51.463Z,21.13
2022-08-17T03:33:20.968Z,21.30
2022-08-17T03:35:48.996Z,21.05
2022-08-17T03:38:18.087Z,22.15
2022-08-17T03:40:57.856Z,20.17
2022-08-17T03:43:32.781Z,18.95
2022-08-17T03:46:28.528Z,17.48
2022-08-17T03:49:23.367Z,21.13
2022-08-17T03:52:09.660Z,19.70
2022-08-17T03:57:24.973Z,19.95
2022-08-17T03:59:53.614Z,20.67
2022-08-17T04:02:33.782Z,22.30
2022-08-17T04:05:02.034Z,20.77
2022-08-17T04:07:30.842Z,21.08
2022-08-17T04:09:59.666Z,19.90
2022-08-17T04:12:32.314Z,20.38
2022-08-17T04:15:02.145Z,19.63
2022-08-17T04:17:30.931Z,20.38
2022-08-17T04:19:58.829Z,20.25
2022-08-17T04:22:33.005Z,20.23
2022-08-17T04:25:22.524Z,19.08
2022-08-17T04:27:50.489Z,20.63
2022-08-17T04:30:18.448Z,19.58
2022-08-17T04:33:03.712Z,19.25
2022-08-17T04:35:45.787Z,18.98
2022-08-17T04:38:16.050Z,18.92
2022-08-17T04:41:13.430Z,19.30
2022-08-17T04:43:41.787Z,18.55
2022-08-17T04:46:22.654Z,19.02
2022-08-17T04:48:52.084Z,17.00
2022-08-17T04:51:25.836Z,17.90
2022-08-17T04:53:58.995Z,18.75
2022-08-17T04:56:27.384Z,17.45
2022-08-17T04:58:57.834Z,18.25
2022-08-17T05:01:28.145Z,18.42
2022-08-17T05:04:20.976Z,17.08
2022-08-17T05:06:50.596Z,15.82
2022-08-17T05:09:19.264Z,15.38
2022-08-17T05:11:47.890Z,14.48
2022-08-17T05:14:16.941Z,14.90
2022-08-17T05:16:45.980Z,14.63
2022-08-17T05:19:15.386Z,14.63
2022-08-17T05:21:45.022Z,14.02
2022-08-17T05:24:38.702Z,14.55
2022-08-17T05:27:06.591Z,14.15
2022-08-17T05:29:35.728Z,14.23
2022-08-17T05:32:38.982Z,15.35
2022-08-17T05:35:00.694Z,16.33
2022-08-17T05:37:28.748Z,15.05
2022-08-17T05:39:56.802Z,16.70
2022-08-17T05:42:24.868Z,19.40
2022-08-17T05:44:53.116Z,23.67
2022-08-17T05:47:21.471Z,24.02
2022-08-17T05:49:49.422Z,24.80
2022-08-17T05:52:32.288Z,23.58
2022-08-17T05:55:20.847Z,20.65
2022-08-17T05:58:37.153Z,20.40
2022-08-17T06:01:57.823Z,19.75
2022-08-17T06:04:55.021Z,21.20
2022-08-17T06:07:50.525Z,19.88
2022-08-17T06:10:31.504Z,19.48
2022-08-17T06:12:59.981Z,21.98
2022-08-17T06:15:52.005Z,23.42
2022-08-17T06:18:23.872Z,22.90
2022-08-17T06:20:53.997Z,23.52
2022-08-17T06:23:35.492Z,19.88
2022-08-17T06:26:09.066Z,21.02
2022-08-17T06:28:55.465Z,22.60
2022-08-17T06:31:35.421Z,22.33
2022-08-17T06:34:04.929Z,21.95
2022-08-17T06:36:57.439Z,23.85
2022-08-17T06:39:53.355Z,21.60
2022-08-17T06:43:02.863Z,21.48
2022-08-17T06:45:39.417Z,19.92
2022-08-17T06:48:24.545Z,17.08
2022-08-17T06:51:01.110Z,16.33
2022-08-17T06:53:38.452Z,16.90
2022-08-17T06:56:10.870Z,16.50
2022-08-17T06:58:41.183Z,15.38
2022-08-17T07:01:15.078Z,14.85
2022-08-17T07:03:48.053Z,14.82
2022-08-17T07:06:22.245Z,14.40
2022-08-17T07:09:11.012Z,14.80
2022-08-17T07:11:54.307Z,14.75
2022-08-17T07:14:40.658Z,14.57
2022-08-17T07:19:45.589Z,14.18
2022-08-17T07:22:19.559Z,14.13
2022-08-17T07:25:09.277Z,14.15
2022-08-17T07:27:40.735Z,14.43
2022-08-17T07:30:45.840Z,13.88
2022-08-17T07:33:23.374Z,15.48
2022-08-17T07:35:52.266Z,13.85
2022-08-17T07:38:28.594Z,13.50
2022-08-17T07:41:03.012Z,12.77
2022-08-17T07:43:40.914Z,11.65
2022-08-17T07:46:43.012Z,11.20
2022-08-17T07:49:11.720Z,11.02
2022-08-17T07:51:43.014Z,10.50
2022-08-17T07:54:23.400Z,9.98
2022-08-17T07:56:55.417Z,11.60
2022-08-17T07:59:34.615Z,11.15
2022-08-17T08:02:31.677Z,12.18
2022-08-17T08:05:49.174Z,12.38
2022-08-17T08:08:45.146Z,12.15
2022-08-17T08:11:41.276Z,11.35
2022-08-17T08:14:28.209Z,11.68
2022-08-17T08:17:04.565Z,12.38
2022-08-17T08:19:38.498Z,12.02
2022-08-17T08:22:11.500Z,14.13
2022-08-17T08:24:58.899Z,11.20
2022-08-17T08:27:50.675Z,10.20
2022-08-17T08:30:21.865Z,9.75
2022-08-17T08:32:59.278Z,9.18
2022-08-17T08:35:34.763Z,9.55
2022-08-17T08:38:24.103Z,9.40
2022-08-17T08:41:00.625Z,9.13
2022-08-17T08:44:07.020Z,11.55
2022-08-17T08:46:50.549Z,12.00
2022-08-17T08:50:04.665Z,11.38
2022-08-17T08:53:16.543Z,13.38
2022-08-17T08:55:55.188Z,9.40
2022-08-17T08:58:31.923Z,8.88
2022-08-17T09:04:23.281Z,9.23
2022-08-17T09:07:06.293Z,9.18
2022-08-17T09:09:41.198Z,10.68
2022-08-17T09:12:26.420Z,10.60
2022-08-17T09:15:01.822Z,9.82
2022-08-17T09:20:46.620Z,9.57
2022-08-17T09:23:36.131Z,8.93
2022-08-17T09:26:10.860Z,8.68
2022-08-17T09:28:42.815Z,8.85
2022-08-17T09:31:16.041Z,8.70
2022-08-17T09:33:46.432Z,11.27
2022-08-17T09:36:28.756Z,10.90
2022-08-17T09:39:08.341Z,10.57
2022-08-17T09:41:50.012Z,11.15
2022-08-17T09:44:39.576Z,10.55
2022-08-17T09:47:07.444Z,12.50
2022-08-17T09:49:45.911Z,10.68
2022-08-17T09:52:27.915Z,10.32
2022-08-17T09:54:58.303Z,10.55
2022-08-17T09:57:38.091Z,10.70
2022-08-17T10:00:16.449Z,11.35
2022-08-17T10:03:08.906Z,10.82
2022-08-17T10:05:48.802Z,11.18
2022-08-17T10:08:29.037Z,9.68
2022-08-17T10:11:06.042Z,11.85
2022-08-17T10:13:53.404Z,12.05
2022-08-17T10:16:23.728Z,12.05
2022-08-17T10:19:13.994Z,11.93
2022-08-17T10:22:14.552Z,11.18
2022-08-17T10:25:21.508Z,11.48
2022-08-17T10:28:19.886Z,11.85
2022-08-17T10:31:34.819Z,11.20
2022-08-17T10:34:21.980Z,10.60
2022-08-17T10:37:08.321Z,10.80
2022-08-17T10:40:20.327Z,11.55
2022-08-17T10:43:22.934Z,11.02
2022-08-17T10:46:31.297Z,10.57
2022-08-17T10:49:18.229Z,10.27
2022-08-17T10:51:48.112Z,10.68
2022-08-17T10:54:41.954Z,11.25
2022-08-17T10:57:34.256Z,10.38
2022-08-17T11:00:06.885Z,11.77
2022-08-17T11:02:54.946Z,11.95
2022-08-17T11:05:54.625Z,11.60
2022-08-17T11:08:49.837Z,12.85
2022-08-17T11:11:37.253Z,13.20
2022-08-17T11:14:33.961Z,13.02
2022-08-17T11:17:15.753Z,14.55
2022-08-17T11:20:20.630Z,13.80
2022-08-17T11:23:10.507Z,14.10
2022-08-17T11:25:39.450Z,14.35
2022-08-17T11:28:25.318Z,13.77
2022-08-17T11:30:55.497Z,13.70
2022-08-17T11:33:42.764Z,13.82
2022-08-17T11:36:52.145Z,13.18
2022-08-17T11:39:41.293Z,11.60
2022-08-17T11:42:40.934Z,11.25
2022-08-17T11:46:06.273Z,8.38
2022-08-17T11:49:05.945Z,7.80
2022-08-17T11:52:09.284Z,9.48
2022-08-17T11:55:17.599Z,8.73
2022-08-17T11:58:01.858Z,8.20
2022-08-17T12:00:45.342Z,8.40
2022-08-17T12:03:34.657Z,8.25
2022-08-17T12:06:17.669Z,9.10
2022-08-17T12:08:55.253Z,7.80
2022-08-17T12:11:56.306Z,9.05
2022-08-17T12:14:51.667Z,9.00
2022-08-17T12:17:40.219Z,8.68
2022-08-17T12:20:32.993Z,8.68
2022-08-17T12:23:16.975Z,8.60
2022-08-17T12:25:57.707Z,8.68
2022-08-17T12:28:33.857Z,7.68
2022-08-17T12:31:04.613Z,8.93
2022-08-17T12:33:34.317Z,8.68
2022-08-17T12:36:04.464Z,8.85
2022-08-17T12:38:36.971Z,8.63
2022-08-17T12:41:24.764Z,8.95
2022-08-17T12:44:16.856Z,8.77
2022-08-17T12:47:08.092Z,8.57
2022-08-17T12:49:42.439Z,8.73
2022-08-17T12:52:16.658Z,8.10
2022-08-17T12:54:51.565Z,8.68
2022-08-17T12:57:34.402Z,8.85
2022-08-17T13:00:21.949Z,8.50
2022-08-17T13:02:51.536Z,8.82
2022-08-17T13:05:37.501Z,8.57
2022-08-17T13:08:18.013Z,9.07
2022-08-17T13:10:55.744Z,8.98
2022-08-17T13:13:26.655Z,8.38
2022-08-17T13:15:56.877Z,8.70
2022-08-17T13:18:41.396Z,9.00
2022-08-17T13:21:23.632Z,8.82
2022-08-17T13:24:01.092Z,9.52
2022-08-17T13:26:34.989Z,9.98
2022-08-17T13:29:07.751Z,9.15
2022-08-17T13:31:51.893Z,10.13
2022-08-17T13:34:24.225Z,9.32
2022-08-17T13:37:27.025Z,10.25
2022-08-17T13:39:59.190Z,9.88
2022-08-17T13:42:51.822Z,10.27
2022-08-17T13:45:35.355Z,10.18
2022-08-17T13:48:16.661Z,9.75
2022-08-17T13:50:57.226Z,9.35
2022-08-17T13:53:27.923Z,9.85
2022-08-17T13:56:33.210Z,9.50
2022-08-17T13:59:11.834Z,9.05
2022-08-17T14:01:52.582Z,9.70
2022-08-17T14:04:28.198Z,8.38
2022-08-17T14:07:12.991Z,8.15
2022-08-17T14:09:54.892Z,8.07
2022-08-17T14:12:25.693Z,8.80
2022-08-17T14:14:59.394Z,8.20
2022-08-17T14:17:29.198Z,8.27
2022-08-17T14:19:57.964Z,9.48
2022-08-17T14:22:34.192Z,9.73
2022-08-17T14:25:04.876Z,9.57
2022-08-17T14:27:51.895Z,10.38
2022-08-17T14:30:23.423Z,9.85
2022-08-17T14:32:52.203Z,9.60
2022-08-17T14:35:22.669Z,11.63
2022-08-17T14:37:51.905Z,10.60
2022-08-17T14:40:57.783Z,10.10
2022-08-17T14:44:04.764Z,11.20
2022-08-17T14:46:33.292Z,10.48
2022-08-17T14:49:04.166Z,9.88
2022-08-17T14:51:32.456Z,9.32
2022-08-17T14:54:00.290Z,10.30
2022-08-17T14:56:37.743Z,10.32
2022-08-17T14:59:06.324Z,9.93
2022-08-17T15:01:35.614Z,10.63
2022-08-17T15:04:03.661Z,10.30
2022-08-17T15:06:31.868Z,10.40
2022-08-17T15:09:03.629Z,11.35
2022-08-17T15:11:32.052Z,10.77
2022-08-17T15:14:01.489Z,10.55
2022-08-17T15:16:35.899Z,11.07
2022-08-17T15:19:05.284Z,11.48
2022-08-17T15:21:36.053Z,11.88
2022-08-17T15:24:05.675Z,11.43
2022-08-17T15:26:33.700Z,11.50
2022-08-17T15:29:01.633Z,11.65
2022-08-17T15:31:32.317Z,11.77
2022-08-17T15:34:00.655Z,11.23
2022-08-17T15:36:28.595Z,10.48
2022-08-17T15:38:56.651Z,10.60
2022-08-17T15:41:28.678Z,11.35
2022-08-17T15:43:57.171Z,11.63
2022-08-17T15:46:25.804Z,11.10
2022-08-17T15:48:55.792Z,11.30
2022-08-17T15:51:25.307Z,11.80
2022-08-17T15:54:04.225Z,11.80
2022-08-17T15:56:46.439Z,11.85
2022-08-17T15:59:14.412Z,11.60
2022-08-17T16:03:14.923Z,11.95
2022-08-17T16:04:31.749Z,11.95
2022-08-17T16:07:03.867Z,12.57
2022-08-17T16:09:32.471Z,13.05
2022-08-17T16:12:09.608Z,13.10
2022-08-17T16:14:38.081Z,14.15
2022-08-17T16:17:40.109Z,14.98
2022-08-17T16:19:56.015Z,14.82
2022-08-17T16:22:33.131Z,15.07
2022-08-17T16:25:04.341Z,16.25
2022-08-17T16:27:32.440Z,17.08
2022-08-17T16:30:01.073Z,14.95
2022-08-17T16:32:31.436Z,14.73
2022-08-17T16:35:09.656Z,14.90
2022-08-17T16:37:40.443Z,15.02
2022-08-17T16:40:14.755Z,15.55
2022-08-17T16:42:46.234Z,15.45
2022-08-17T16:45:17.064Z,15.48
2022-08-17T16:47:46.093Z,15.73
2022-08-17T16:50:15.496Z,15.27
2022-08-17T16:52:43.644Z,15.82
2022-08-17T16:55:13.146Z,14.75
2022-08-17T16:57:48.535Z,12.98
2022-08-17T17:00:19.723Z,12.85
2022-08-17T17:02:48.570Z,13.23
2022-08-17T17:05:43.608Z,13.23
2022-08-17T17:08:19.717Z,13.57
2022-08-17T17:10:52.846Z,15.15
2022-08-17T17:13:23.994Z,13.73
2022-08-17T17:15:53.728Z,14.07
2022-08-17T17:18:30.674Z,14.10
2022-08-17T17:20:59.188Z,14.63
2022-08-17T17:23:41.684Z,14.50
2022-08-17T17:26:24.946Z,14.77
2022-08-17T17:29:19.473Z,14.30
2022-08-17T17:32:01.642Z,14.18
2022-08-17T17:34:30.049Z,17.58
2022-08-17T17:36:58.977Z,15.30
2022-08-17T17:39:44.486Z,14.85
2022-08-17T17:42:14.996Z,14.13
2022-08-17T17:45:02.158Z,14.45
2022-08-17T17:47:32.102Z,14.80
2022-08-17T17:50:01.826Z,14.73
2022-08-17T17:52:36.327Z,12.73
2022-08-17T17:55:18.903Z,13.30
2022-08-17T17:58:05.592Z,12.43
2022-08-17T18:00:53.783Z,14.02
2022-08-17T18:04:20.592Z,14.25
2022-08-17T18:07:15.597Z,13.38
2022-08-17T18:09:53.623Z,15.73
2022-08-17T18:12:28.541Z,16.33
2022-08-17T18:15:23.365Z,15.30
2022-08-17T18:18:10.181Z,17.08
2022-08-17T18:20:53.333Z,16.80
2022-08-17T18:23:28.908Z,18.35
2022-08-17T18:25:58.944Z,17.50
2022-08-17T18:28:32.843Z,16.92
2022-08-17T18:31:15.283Z,16.85
2022-08-17T18:33:49.301Z,16.23
2022-08-17T18:36:33.105Z,16.55
2022-08-17T18:39:24.141Z,17.55
2022-08-17T18:41:54.350Z,17.05
2022-08-17T18:44:25.944Z,15.95
2022-08-17T18:47:22.340Z,15.88
2022-08-17T18:49:57.972Z,15.20
2022-08-17T18:52:30.233Z,14.50
2022-08-17T18:55:21.441Z,15.38
2022-08-17T18:57:57.092Z,14.70
2022-08-17T19:00:46.894Z,16.02
2022-08-17T19:03:21.256Z,15.55
2022-08-17T19:05:56.162Z,15.20
2022-08-17T19:08:30.510Z,15.20
2022-08-17T19:10:58.622Z,14.75
2022-08-17T19:13:40.111Z,14.98
2022-08-17T19:16:27.287Z,14.73
2022-08-17T19:18:59.877Z,13.65
2022-08-17T19:21:37.438Z,14.02
2022-08-17T19:24:14.576Z,14.07
2022-08-17T19:26:54.826Z,14.48
2022-08-17T19:29:35.129Z,13.13
2022-08-17T19:32:04.411Z,12.88
2022-08-17T19:34:34.782Z,14.70
2022-08-17T19:37:21.712Z,15.68
2022-08-17T19:40:08.045Z,18.33
2022-08-17T19:43:12.495Z,17.25
2022-08-17T19:46:04.794Z,20.83
2022-08-17T19:48:49.068Z,21.23
2022-08-17T19:51:50.407Z,20.70
2022-08-17T19:54:24.961Z,20.08
2022-08-17T19:56:58.409Z,20.20
2022-08-17T19:59:54.643Z,19.60
2022-08-17T20:02:22.704Z,18.83
2022-08-17T20:04:51.197Z,17.75
2022-08-17T20:07:22.710Z,17.58
2022-08-17T20:10:00.023Z,17.20
2022-08-17T20:12:36.591Z,19.35
2022-08-17T20:15:10.799Z,17.40
2022-08-17T20:17:41.783Z,17.00
2022-08-17T20:20:29.823Z,16.27
2022-08-17T20:23:12.117Z,17.60
2022-08-17T20:25:50.816Z,16.90
2022-08-17T20:28:26.254Z,18.48
2022-08-17T20:30:54.732Z,16.88
2022-08-17T20:33:30.059Z,16.20
2022-08-17T20:36:11.571Z,16.60
2022-08-17T20:38:48.094Z,16.98
2022-08-17T20:41:20.971Z,16.95
2022-08-17T20:43:56.841Z,16.45
2022-08-17T20:46:43.000Z,16.33
2022-08-17T20:49:14.632Z,16.70
2022-08-17T20:52:00.627Z,17.58
2022-08-17T20:54:57.535Z,17.67
2022-08-17T20:57:34.105Z,16.85
2022-08-17T21:00:23.593Z,17.20
2022-08-17T21:02:52.218Z,17.55
2022-08-17T21:05:30.312Z,18.33
2022-08-17T21:08:16.107Z,18.27
2022-08-17T21:10:47.188Z,18.55
2022-08-17T21:13:15.600Z,19.10
2022-08-17T21:15:59.206Z,19.42
2022-08-17T21:18:45.435Z,19.30
2022-08-17T21:21:41.805Z,18.98
2022-08-17T21:24:41.150Z,20.65
2022-08-17T21:27:29.535Z,22.30
2022-08-17T21:30:10.288Z,27.02
2022-08-17T21:32:42.137Z,28.50
2022-08-17T21:35:28.703Z,28.10
2022-08-17T21:40:29.174Z,32.78
2022-08-17T21:43:32.512Z,32.35
2022-08-17T21:46:03.098Z,32.97
2022-08-17T21:48:32.609Z,33.25
2022-08-17T21:51:14.144Z,31.60
2022-08-17T21:53:42.397Z,31.23
2022-08-17T21:56:12.437Z,29.17
2022-08-17T21:58:46.599Z,28.88
2022-08-17T22:01:24.478Z,27.60
2022-08-17T22:03:59.929Z,27.00
2022-08-17T22:06:38.198Z,26.27
2022-08-17T22:09:27.934Z,24.75
2022-08-17T22:12:00.525Z,24.90
2022-08-17T22:14:53.143Z,23.98
2022-08-17T22:17:29.665Z,21.90
2022-08-17T22:20:01.512Z,22.08
2022-08-17T22:23:13.107Z,19.45
2022-08-17T22:25:56.890Z,19.05
2022-08-17T22:28:41.877Z,17.73
2022-08-17T22:31:13.247Z,18.02
2022-08-17T22:33:50.690Z,16.65
2022-08-17T22:38:58.472Z,16.33
2022-08-17T22:41:52.231Z,16.50
2022-08-17T22:44:37.851Z,16.70
2022-08-17T22:47:28.224Z,16.10
2022-08-17T22:49:58.370Z,16.75
2022-08-17T22:52:59.864Z,16.77
2022-08-17T22:55:48.447Z,15.68
2022-08-17T22:58:37.077Z,14.63
2022-08-17T23:01:24.899Z,14.52
2022-08-17T23:04:04.749Z,13.90
2022-08-17T23:06:36.577Z,14.15
2022-08-17T23:09:05.987Z,14.43
2022-08-17T23:11:50.187Z,13.75
2022-08-17T23:14:21.698Z,13.40
2022-08-17T23:16:54.207Z,13.23
2022-08-17T23:19:22.282Z,13.02
2022-08-17T23:21:55.445Z,13.25
2022-08-17T23:24:25.132Z,14.32
2022-08-17T23:26:54.338Z,14.95
2022-08-17T23:29:23.267Z,14.18
2022-08-17T23:31:55.230Z,13.95
2022-08-17T23:34:24.423Z,14.38
2022-08-17T23:36:53.287Z,14.90
2022-08-17T23:39:24.719Z,13.75
2022-08-17T23:42:00.516Z,13.20
2022-08-17T23:44:29.028Z,12.93
2022-08-17T23:46:58.253Z,12.05
2022-08-17T23:49:26.713Z,12.98
2022-08-17T23:51:55.342Z,12.50
2022-08-17T23:54:46.633Z,13.50
2022-08-17T23:57:18.412Z,12.82
2022-08-17T23:59:46.623Z,12.30
